Time;durP1;ratioP1;P1;durP2;ratioP2;P2;SDS_P1;SDS_P2;PMS_P1;PMS_P2;Temp;Humidity;BMP_temperature;BMP_pressure;BME280_temperature;BME280_humidity;BME280_pressure;Samples;Min_cycle;Max_cycle;Signal;HPM_P1;HPM_P2
2020/09/20 00:01:33;;;;;;;2.12;1.93;;;;;;;21.26;64.40;100292.91;;;;-52
2020/09/20 00:04:33;;;;;;;2.19;1.99;;;;;;;21.25;64.38;100293.73;;;;-54
2020/09/20 00:07:33;;;;;;;2.18;1.91;;;;;;;21.25;64.39;100294.20;;;;-54
2020/09/20 00:10:33;;;;;;;2.88;2.00;;;;;;;21.25;64.41;100296.97;;;;-54
2020/09/20 00:13:32;;;;;;;2.46;2.00;;;;;;;21.24;64.39;100300.56;;;;-52
2020/09/20 00:16:32;;;;;;;2.19;1.97;;;;;;;21.24;64.41;100301.13;;;;-55
2020/09/20 00:19:32;;;;;;;2.24;1.91;;;;;;;21.23;64.40;100299.98;;;;-54
2020/09/20 00:22:33;;;;;;;2.13;1.90;;;;;;;21.23;64.44;100298.37;;;;-52
2020/09/20 00:25:32;;;;;;;2.20;1.96;;;;;;;21.22;64.41;100292.42;;;;-51
2020/09/20 00:28:33;;;;;;;2.13;1.93;;;;;;;21.22;64.42;100292.67;;;;-52
2020/09/20 00:31:32;;;;;;;2.27;2.07;;;;;;;21.22;64.41;100290.80;;;;-54
2020/09/20 00:34:33;;;;;;;2.65;2.07;;;;;;;21.22;64.46;100295.93;;;;-52
2020/09/20 00:37:33;;;;;;;2.19;1.99;;;;;;;21.20;64.40;100296.98;;;;-53
2020/09/20 00:40:33;;;;;;;2.49;1.99;;;;;;;21.20;64.37;100303.99;;;;-52
2020/09/20 00:43:32;;;;;;;2.17;1.97;;;;;;;21.20;64.48;100301.39;;;;-52
2020/09/20 00:46:32;;;;;;;2.09;1.89;;;;;;;21.19;64.39;100300.59;;;;-52
2020/09/20 00:49:32;;;;;;;1.81;1.71;;;;;;;21.19;64.47;100302.47;;;;-52
2020/09/20 00:52:33;;;;;;;2.07;1.85;;;;;;;21.19;64.40;100304.44;;;;-52
2020/09/20 00:55:33;;;;;;;1.93;1.81;;;;;;;21.19;64.49;100300.36;;;;-54
2020/09/20 00:58:33;;;;;;;2.30;2.10;;;;;;;21.18;64.42;100296.27;;;;-51
2020/09/20 01:01:32;;;;;;;2.23;2.03;;;;;;;21.17;64.44;100292.28;;;;-52
2020/09/20 01:04:32;;;;;;;2.21;2.01;;;;;;;21.18;64.44;100289.59;;;;-52
2020/09/20 01:07:33;;;;;;;2.11;1.91;;;;;;;21.17;64.46;100287.73;;;;-52
2020/09/20 01:10:32;;;;;;;3.25;2.09;;;;;;;21.17;64.45;100288.63;;;;-52
2020/09/20 01:13:33;;;;;;;2.33;2.13;;;;;;;21.17;64.48;100294.82;;;;-53
2020/09/20 01:16:32;;;;;;;2.21;2.01;;;;;;;21.16;64.46;100296.44;;;;-52
2020/09/20 01:19:33;;;;;;;2.49;1.95;;;;;;;21.16;64.44;100300.99;;;;-52
2020/09/20 01:22:32;;;;;;;2.27;2.07;;;;;;;21.16;64.42;100298.23;;;;-51
2020/09/20 01:25:32;;;;;;;2.18;1.98;;;;;;;21.16;64.50;100299.21;;;;-52
2020/09/20 01:28:32;;;;;;;2.37;2.04;;;;;;;21.15;64.41;100299.78;;;;-54
2020/09/20 01:31:33;;;;;;;2.11;1.89;;;;;;;21.15;64.47;100294.25;;;;-52
2020/09/20 01:34:33;;;;;;;2.20;2.00;;;;;;;21.14;64.50;100300.51;;;;-54
2020/09/20 01:37:33;;;;;;;2.27;2.07;;;;;;;21.14;64.50;100307.59;;;;-52
2020/09/20 01:40:33;;;;;;;2.20;2.00;;;;;;;21.14;64.49;100305.64;;;;-52
2020/09/20 01:43:33;;;;;;;2.21;1.99;;;;;;;21.14;64.50;100310.22;;;;-52
2020/09/20 01:46:32;;;;;;;2.28;2.08;;;;;;;21.14;64.48;100308.34;;;;-52
2020/09/20 01:49:33;;;;;;;2.20;2.00;;;;;;;21.13;64.43;100309.66;;;;-52
2020/09/20 01:52:32;;;;;;;2.37;2.17;;;;;;;21.12;64.50;100315.75;;;;-52
2020/09/20 01:55:33;;;;;;;2.27;2.07;;;;;;;21.13;64.42;100310.97;;;;-52
2020/09/20 01:58:32;;;;;;;2.79;1.97;;;;;;;21.12;64.49;100309.16;;;;-52
2020/09/20 02:01:33;;;;;;;2.47;2.21;;;;;;;21.12;64.46;100313.80;;;;-52
2020/09/20 02:04:33;;;;;;;2.57;2.15;;;;;;;21.11;64.49;100314.14;;;;-52
2020/09/20 02:07:32;;;;;;;2.28;2.07;;;;;;;21.11;64.47;100318.46;;;;-52
2020/09/20 02:10:32;;;;;;;2.30;2.07;;;;;;;21.11;64.50;100326.78;;;;-52
2020/09/20 02:13:33;;;;;;;2.15;1.96;;;;;;;21.11;64.54;100331.26;;;;-52
2020/09/20 02:16:33;;;;;;;2.33;2.12;;;;;;;21.10;64.45;100335.23;;;;-53
2020/09/20 02:19:33;;;;;;;2.24;2.04;;;;;;;21.10;64.47;100333.84;;;;-52
2020/09/20 02:22:33;;;;;;;2.21;2.01;;;;;;;21.10;64.47;100334.34;;;;-52
2020/09/20 02:25:32;;;;;;;2.33;2.13;;;;;;;21.09;64.47;100339.64;;;;-55
2020/09/20 02:28:33;;;;;;;2.43;2.23;;;;;;;21.10;64.48;100342.73;;;;-52
2020/09/20 02:31:33;;;;;;;2.51;2.00;;;;;;;21.09;64.47;100342.50;;;;-51
2020/09/20 02:34:32;;;;;;;2.22;2.02;;;;;;;21.09;64.45;100342.34;;;;-52
2020/09/20 02:37:33;;;;;;;2.80;2.00;;;;;;;21.08;64.48;100336.55;;;;-52
2020/09/20 02:40:33;;;;;;;2.30;2.06;;;;;;;21.08;64.50;100333.30;;;;-52
2020/09/20 02:43:33;;;;;;;2.35;2.15;;;;;;;21.07;64.50;100332.65;;;;-54
2020/09/20 02:46:33;;;;;;;2.17;1.98;;;;;;;21.06;64.54;100330.54;;;;-55
2020/09/20 02:49:32;;;;;;;2.39;2.19;;;;;;;21.07;64.50;100328.50;;;;-54
2020/09/20 02:52:32;;;;;;;2.20;1.99;;;;;;;21.06;64.48;100328.59;;;;-54
2020/09/20 02:55:32;;;;;;;2.09;1.89;;;;;;;21.07;64.54;100330.78;;;;-54
2020/09/20 02:58:32;;;;;;;2.21;2.01;;;;;;;21.07;64.48;100333.71;;;;-52
2020/09/20 03:01:33;;;;;;;2.49;2.29;;;;;;;21.06;64.50;100332.55;;;;-52
2020/09/20 03:04:33;;;;;;;2.30;2.10;;;;;;;21.06;64.51;100327.67;;;;-52
2020/09/20 03:07:33;;;;;;;2.29;2.09;;;;;;;21.05;64.54;100327.36;;;;-54
2020/09/20 03:10:32;;;;;;;2.43;2.23;;;;;;;21.05;64.52;100324.59;;;;-54
2020/09/20 03:13:33;;;;;;;2.29;2.01;;;;;;;21.04;64.51;100320.60;;;;-54
2020/09/20 03:16:33;;;;;;;2.49;2.11;;;;;;;21.05;64.48;100319.86;;;;-55
2020/09/20 03:19:32;;;;;;;2.51;2.17;;;;;;;21.04;64.57;100317.32;;;;-54
2020/09/20 03:22:32;;;;;;;2.48;2.19;;;;;;;21.04;64.51;100313.11;;;;-52
2020/09/20 03:25:33;;;;;;;2.36;2.16;;;;;;;21.04;64.51;100310.73;;;;-52
2020/09/20 03:28:33;;;;;;;2.44;1.96;;;;;;;21.03;64.52;100308.47;;;;-54
2020/09/20 03:31:33;;;;;;;2.40;2.10;;;;;;;21.04;64.54;100310.73;;;;-55
2020/09/20 03:34:32;;;;;;;2.41;2.20;;;;;;;21.03;64.52;100304.14;;;;-52
2020/09/20 03:37:32;;;;;;;2.24;2.04;;;;;;;21.02;64.53;100300.95;;;;-52
2020/09/20 03:40:32;;;;;;;2.34;2.14;;;;;;;21.03;64.50;100298.36;;;;-52
2020/09/20 03:43:32;;;;;;;2.37;2.17;;;;;;;21.02;64.51;100302.69;;;;-52
2020/09/20 03:46:32;;;;;;;2.30;2.10;;;;;;;21.02;64.54;100308.29;;;;-52
2020/09/20 03:49:32;;;;;;;2.18;2.02;;;;;;;21.02;64.50;100306.16;;;;-52
2020/09/20 03:52:32;;;;;;;2.43;2.23;;;;;;;21.01;64.54;100306.75;;;;-52
2020/09/20 03:55:33;;;;;;;2.29;2.10;;;;;;;21.01;64.49;100309.36;;;;-54
2020/09/20 03:58:33;;;;;;;2.52;2.32;;;;;;;21.01;64.50;100311.16;;;;-55
2020/09/20 04:01:32;;;;;;;2.35;2.15;;;;;;;21.01;64.53;100310.99;;;;-54
2020/09/20 04:04:32;;;;;;;3.22;2.30;;;;;;;21.00;64.50;100306.09;;;;-52
2020/09/20 04:07:32;;;;;;;2.49;2.29;;;;;;;21.00;64.49;100306.58;;;;-52
2020/09/20 04:10:33;;;;;;;2.30;2.10;;;;;;;21.00;64.46;100303.59;;;;-53
2020/09/20 04:13:33;;;;;;;2.23;2.03;;;;;;;21.00;64.48;100303.48;;;;-52
2020/09/20 04:16:32;;;;;;;2.33;2.13;;;;;;;20.99;64.50;100304.47;;;;-52
2020/09/20 04:19:33;;;;;;;2.61;2.33;;;;;;;20.99;64.54;100301.53;;;;-54
2020/09/20 04:22:33;;;;;;;2.45;2.19;;;;;;;20.99;64.49;100301.37;;;;-54
2020/09/20 04:25:33;;;;;;;2.25;2.06;;;;;;;20.99;64.50;100297.22;;;;-52
2020/09/20 04:28:32;;;;;;;6.43;4.39;;;;;;;20.83;57.70;100300.42;;;;-54
2020/09/20 04:31:32;;;;;;;5.80;4.83;;;;;;;20.57;55.73;100298.98;;;;-54
2020/09/20 04:34:33;;;;;;;6.63;4.91;;;;;;;20.33;55.52;100299.38;;;;-56
2020/09/20 04:37:33;;;;;;;7.61;4.91;;;;;;;20.19;54.99;100296.39;;;;-57
2020/09/20 04:40:32;;;;;;;7.80;5.03;;;;;;;20.00;55.15;100297.48;;;;-54
2020/09/20 04:43:32;;;;;;;7.35;4.94;;;;;;;19.88;54.94;100294.72;;;;-53
2020/09/20 04:46:32;;;;;;;6.47;5.53;;;;;;;19.71;55.20;100294.09;;;;-52
2020/09/20 04:49:33;;;;;;;7.93;5.07;;;;;;;19.62;55.16;100298.83;;;;-50
2020/09/20 04:52:32;;;;;;;6.07;4.89;;;;;;;19.50;55.29;100302.13;;;;-51
2020/09/20 04:55:33;;;;;;;5.64;4.78;;;;;;;19.39;55.39;100311.51;;;;-50
2020/09/20 04:58:32;;;;;;;7.35;5.25;;;;;;;19.29;55.60;100314.46;;;;-50
2020/09/20 05:01:33;;;;;;;6.22;4.87;;;;;;;19.25;55.80;100314.53;;;;-50
2020/09/20 05:04:32;;;;;;;7.25;4.89;;;;;;;19.17;55.76;100316.67;;;;-56
2020/09/20 05:07:32;;;;;;;7.08;5.15;;;;;;;19.11;55.91;100318.59;;;;-50
2020/09/20 05:10:33;;;;;;;5.01;4.50;;;;;;;19.02;55.86;100321.64;;;;-56
2020/09/20 05:13:32;;;;;;;5.98;5.02;;;;;;;18.92;56.02;100320.11;;;;-56
2020/09/20 05:16:33;;;;;;;7.03;5.27;;;;;;;18.90;55.72;100317.73;;;;-57
2020/09/20 05:19:34;;;;;;;6.77;5.00;;;;;;;18.83;55.98;100316.16;;;;-49
2020/09/20 05:22:32;;;;;;;6.29;4.85;;;;;;;18.76;56.12;100319.09;;;;-56
2020/09/20 05:25:32;;;;;;;10.89;4.83;;;;;;;18.69;56.06;100322.36;;;;-55
2020/09/20 05:28:34;;;;;;;7.72;5.15;;;;;;;18.64;56.18;100328.58;;;;-51
2020/09/20 05:31:33;;;;;;;6.75;5.09;;;;;;;18.59;56.41;100331.53;;;;-51
2020/09/20 05:34:32;;;;;;;8.37;4.79;;;;;;;18.55;56.47;100332.82;;;;-49
2020/09/20 05:37:32;;;;;;;6.49;4.99;;;;;;;18.49;56.65;100331.36;;;;-49
2020/09/20 05:40:33;;;;;;;6.53;4.61;;;;;;;18.47;56.67;100332.27;;;;-56
2020/09/20 05:43:32;;;;;;;6.52;5.17;;;;;;;18.37;56.86;100330.14;;;;-56
2020/09/20 05:46:32;;;;;;;7.83;4.83;;;;;;;18.37;56.92;100322.44;;;;-50
2020/09/20 05:49:32;;;;;;;8.07;4.97;;;;;;;18.30;57.12;100317.77;;;;-55
2020/09/20 05:52:32;;;;;;;8.09;5.09;;;;;;;18.27;57.26;100322.50;;;;-57
2020/09/20 05:55:32;;;;;;;6.26;5.05;;;;;;;18.20;57.45;100323.59;;;;-57
2020/09/20 05:58:33;;;;;;;6.06;5.31;;;;;;;18.16;57.58;100320.44;;;;-56
2020/09/20 06:01:33;;;;;;;6.64;5.19;;;;;;;18.16;57.66;100320.71;;;;-56
2020/09/20 06:04:32;;;;;;;6.87;5.21;;;;;;;18.13;57.84;100322.21;;;;-49
2020/09/20 06:07:33;;;;;;;7.24;5.63;;;;;;;18.12;57.94;100329.43;;;;-55
2020/09/20 06:10:32;;;;;;;7.26;5.66;;;;;;;18.08;58.23;100324.20;;;;-55
2020/09/20 06:13:32;;;;;;;8.25;5.79;;;;;;;18.04;58.15;100319.30;;;;-55
2020/09/20 06:16:32;;;;;;;7.89;5.82;;;;;;;18.04;58.30;100321.40;;;;-55
2020/09/20 06:19:33;;;;;;;9.94;5.69;;;;;;;18.02;58.42;100321.38;;;;-56
2020/09/20 06:22:32;;;;;;;7.01;5.35;;;;;;;18.01;58.45;100324.52;;;;-56
2020/09/20 06:25:32;;;;;;;8.59;5.83;;;;;;;18.01;58.53;100326.38;;;;-55
2020/09/20 06:28:32;;;;;;;6.69;5.47;;;;;;;17.95;58.67;100327.23;;;;-54
2020/09/20 06:31:32;;;;;;;8.57;5.85;;;;;;;17.97;58.62;100327.64;;;;-55
2020/09/20 06:34:32;;;;;;;6.95;5.87;;;;;;;17.98;58.52;100334.39;;;;-56
2020/09/20 06:37:33;;;;;;;9.15;6.05;;;;;;;17.98;58.63;100333.25;;;;-55
2020/09/20 06:40:32;;;;;;;7.43;6.21;;;;;;;18.02;58.58;100333.06;;;;-55
2020/09/20 06:43:32;;;;;;;6.85;5.74;;;;;;;17.97;58.32;100333.09;;;;-51
2020/09/20 06:46:32;;;;;;;7.97;5.89;;;;;;;17.97;58.28;100336.23;;;;-50
2020/09/20 06:49:33;;;;;;;7.94;5.89;;;;;;;18.00;58.18;100336.77;;;;-49
2020/09/20 06:52:32;;;;;;;7.00;5.89;;;;;;;18.02;57.86;100333.95;;;;-50
2020/09/20 06:55:32;;;;;;;7.28;5.67;;;;;;;18.02;57.87;100337.92;;;;-51
2020/09/20 06:58:32;;;;;;;8.15;5.59;;;;;;;18.00;57.76;100342.28;;;;-51
2020/09/20 07:01:33;;;;;;;6.43;5.44;;;;;;;18.03;57.73;100348.94;;;;-51
2020/09/20 07:04:33;;;;;;;7.74;4.95;;;;;;;18.01;57.57;100345.14;;;;-56
2020/09/20 07:07:33;;;;;;;8.28;5.28;;;;;;;18.01;58.89;100345.11;;;;-55
2020/09/20 07:10:32;;;;;;;11.91;5.75;;;;;;;18.02;59.09;100341.48;;;;-49
2020/09/20 07:13:33;;;;;;;7.51;5.30;;;;;;;17.96;59.49;100340.69;;;;-50
2020/09/20 07:16:32;;;;;;;6.91;5.13;;;;;;;17.99;59.02;100342.25;;;;-56
2020/09/20 07:19:33;;;;;;;7.33;4.91;;;;;;;18.00;59.21;100343.82;;;;-54
2020/09/20 07:22:32;;;;;;;5.89;5.04;;;;;;;18.02;58.56;100349.27;;;;-51
2020/09/20 07:25:32;;;;;;;7.59;5.07;;;;;;;18.06;58.17;100351.11;;;;-50
2020/09/20 07:28:33;;;;;;;5.99;4.89;;;;;;;18.06;59.04;100352.89;;;;-56
2020/09/20 07:31:33;;;;;;;6.67;4.83;;;;;;;18.04;58.58;100351.24;;;;-56
2020/09/20 07:34:32;;;;;;;6.28;4.87;;;;;;;18.04;58.75;100350.67;;;;-56
2020/09/20 07:37:32;;;;;;;5.57;4.48;;;;;;;18.06;58.70;100353.45;;;;-49
2020/09/20 07:40:33;;;;;;;6.34;4.49;;;;;;;18.07;58.42;100357.26;;;;-49
2020/09/20 07:43:32;;;;;;;9.45;4.73;;;;;;;18.10;58.44;100358.61;;;;-49
2020/09/20 07:46:32;;;;;;;9.62;4.61;;;;;;;18.13;58.73;100360.41;;;;-59
2020/09/20 07:49:33;;;;;;;10.16;4.31;;;;;;;18.22;59.17;100356.95;;;;-52
2020/09/20 07:52:32;;;;;;;6.55;3.95;;;;;;;18.32;59.38;100356.29;;;;-54
2020/09/20 07:55:32;;;;;;;5.89;3.94;;;;;;;18.41;59.62;100354.82;;;;-53
2020/09/20 07:58:32;;;;;;;6.93;3.69;;;;;;;18.48;59.92;100354.81;;;;-58
2020/09/20 08:01:32;;;;;;;5.07;3.77;;;;;;;18.57;59.81;100357.81;;;;-62
2020/09/20 08:04:33;;;;;;;9.29;3.65;;;;;;;18.60;59.59;100359.31;;;;-62
2020/09/20 08:07:32;;;;;;;4.78;3.52;;;;;;;18.65;59.57;100361.94;;;;-62
2020/09/20 08:10:32;;;;;;;7.47;3.87;;;;;;;18.69;59.60;100360.42;;;;-63
2020/09/20 08:13:32;;;;;;;4.03;3.25;;;;;;;18.73;59.65;100364.92;;;;-62
2020/09/20 08:16:32;;;;;;;6.22;3.67;;;;;;;18.76;59.71;100368.34;;;;-50
2020/09/20 08:19:33;;;;;;;6.35;3.59;;;;;;;18.79;59.69;100369.06;;;;-62
2020/09/20 08:22:33;;;;;;;5.37;3.39;;;;;;;18.83;59.77;100368.38;;;;-54
2020/09/20 08:25:32;;;;;;;4.79;3.48;;;;;;;18.86;59.76;100368.38;;;;-48
2020/09/20 08:28:33;;;;;;;4.34;3.42;;;;;;;18.88;59.87;100365.55;;;;-62
2020/09/20 08:31:32;;;;;;;3.97;3.47;;;;;;;18.91;59.94;100362.98;;;;-52
2020/09/20 08:34:37;;;;;;;4.67;3.33;;;;;;;18.96;60.01;100364.15;;;;-55
2020/09/20 08:37:32;;;;;;;4.24;3.53;;;;;;;19.01;60.00;100366.64;;;;-57
2020/09/20 08:40:33;;;;;;;5.25;3.54;;;;;;;19.05;60.00;100371.83;;;;-56
2020/09/20 08:43:32;;;;;;;4.64;3.35;;;;;;;19.09;60.03;100370.64;;;;-56
2020/09/20 08:46:32;;;;;;;4.05;3.13;;;;;;;19.13;60.08;100368.16;;;;-56
2020/09/20 08:49:33;;;;;;;5.91;3.56;;;;;;;19.16;60.11;100371.03;;;;-51
2020/09/20 08:52:32;;;;;;;5.25;3.54;;;;;;;19.19;59.94;100369.73;;;;-51
2020/09/20 08:55:32;;;;;;;4.23;3.63;;;;;;;19.20;60.04;100370.41;;;;-51
2020/09/20 08:58:32;;;;;;;4.92;3.33;;;;;;;19.22;59.99;100369.13;;;;-55
2020/09/20 09:01:32;;;;;;;4.11;3.34;;;;;;;19.23;60.00;100364.89;;;;-56
2020/09/20 09:04:33;;;;;;;3.41;3.11;;;;;;;19.24;60.10;100368.24;;;;-55
2020/09/20 09:07:32;;;;;;;5.27;3.32;;;;;;;19.25;60.10;100368.72;;;;-51
2020/09/20 09:10:33;;;;;;;3.89;3.35;;;;;;;19.27;60.07;100370.28;;;;-52
2020/09/20 09:13:33;;;;;;;4.33;3.41;;;;;;;19.28;60.05;100367.34;;;;-51
2020/09/20 09:16:32;;;;;;;5.02;3.15;;;;;;;19.31;60.17;100361.36;;;;-55
2020/09/20 09:19:33;;;;;;;3.37;3.07;;;;;;;19.34;60.31;100362.13;;;;-46
2020/09/20 09:22:32;;;;;;;5.28;3.35;;;;;;;19.37;60.36;100357.02;;;;-49
2020/09/20 09:25:32;;;;;;;3.81;3.12;;;;;;;19.40;60.46;100355.14;;;;-55
2020/09/20 09:28:33;;;;;;;4.54;3.31;;;;;;;19.43;60.47;100352.16;;;;-54
2020/09/20 09:31:33;;;;;;;4.63;3.13;;;;;;;19.45;60.59;100346.48;;;;-56
2020/09/20 09:34:33;;;;;;;4.49;3.44;;;;;;;19.48;60.57;100345.19;;;;-57
2020/09/20 09:37:32;;;;;;;6.87;3.05;;;;;;;19.50;60.49;100340.97;;;;-59
2020/09/20 09:40:32;;;;;;;4.20;3.11;;;;;;;19.52;60.61;100342.69;;;;-52
2020/09/20 09:43:32;;;;;;;5.46;3.28;;;;;;;19.56;60.83;100343.44;;;;-58
2020/09/20 09:46:33;;;;;;;4.59;3.05;;;;;;;19.59;60.91;100340.22;;;;-54
2020/09/20 09:49:32;;;;;;;6.17;3.03;;;;;;;19.61;60.86;100332.66;;;;-60
2020/09/20 09:52:33;;;;;;;5.25;2.88;;;;;;;19.64;60.90;100326.48;;;;-59
2020/09/20 09:55:32;;;;;;;5.85;3.19;;;;;;;19.66;60.98;100319.91;;;;-58
2020/09/20 09:58:32;;;;;;;4.44;3.02;;;;;;;19.69;60.94;100323.39;;;;-59
2020/09/20 10:01:32;;;;;;;4.52;3.09;;;;;;;19.70;61.05;100319.34;;;;-51
2020/09/20 10:04:39;;;;;;;4.04;2.86;;;;;;;19.73;60.96;100315.97;;;;-52
2020/09/20 10:07:32;;;;;;;7.04;2.97;;;;;;;19.75;60.97;100312.15;;;;-53
2020/09/20 10:10:32;;;;;;;4.37;3.14;;;;;;;19.77;61.07;100312.56;;;;-52
2020/09/20 10:13:33;;;;;;;4.89;2.99;;;;;;;19.80;60.99;100314.70;;;;-45
2020/09/20 10:16:33;;;;;;;4.47;3.20;;;;;;;19.81;60.92;100312.49;;;;-52
2020/09/20 10:19:32;;;;;;;6.28;3.02;;;;;;;19.83;60.95;100310.72;;;;-59
2020/09/20 10:22:32;;;;;;;5.05;2.94;;;;;;;19.83;60.92;100317.63;;;;-53
2020/09/20 10:25:32;;;;;;;5.61;2.93;;;;;;;19.84;60.84;100315.09;;;;-58
2020/09/20 10:28:32;;;;;;;4.38;3.13;;;;;;;19.85;60.82;100313.31;;;;-59
2020/09/20 10:31:33;;;;;;;4.82;3.00;;;;;;;19.86;60.82;100310.49;;;;-60
2020/09/20 10:34:32;;;;;;;3.17;2.78;;;;;;;19.86;60.78;100309.51;;;;-59
2020/09/20 10:37:32;;;;;;;3.95;2.90;;;;;;;19.87;60.78;100310.23;;;;-59
2020/09/20 10:40:32;;;;;;;3.66;2.90;;;;;;;19.87;60.74;100308.12;;;;-54
2020/09/20 10:43:33;;;;;;;5.95;2.99;;;;;;;19.87;60.79;100308.12;;;;-59
2020/09/20 10:46:33;;;;;;;4.33;3.09;;;;;;;19.89;60.83;100301.37;;;;-51
2020/09/20 10:49:32;;;;;;;7.09;3.07;;;;;;;19.92;60.78;100303.40;;;;-57
2020/09/20 10:52:32;;;;;;;8.15;2.79;;;;;;;19.92;60.78;100303.31;;;;-57
2020/09/20 10:55:33;;;;;;;3.59;2.80;;;;;;;19.93;60.80;100303.42;;;;-57
2020/09/20 10:58:32;;;;;;;4.56;2.89;;;;;;;19.94;60.68;100302.67;;;;-58
2020/09/20 11:01:32;;;;;;;3.16;2.75;;;;;;;19.94;60.72;100295.67;;;;-53
2020/09/20 11:04:32;;;;;;;5.18;2.87;;;;;;;19.95;60.78;100294.72;;;;-57
2020/09/20 11:07:32;;;;;;;3.65;3.02;;;;;;;19.96;60.73;100293.00;;;;-53
2020/09/20 11:10:32;;;;;;;3.95;2.89;;;;;;;19.96;60.77;100289.34;;;;-54
2020/09/20 11:13:32;;;;;;;4.81;2.87;;;;;;;19.97;60.71;100291.15;;;;-54
2020/09/20 11:16:32;;;;;;;3.53;2.83;;;;;;;19.97;60.73;100291.63;;;;-54
2020/09/20 11:19:32;;;;;;;3.59;2.85;;;;;;;19.99;60.72;100289.69;;;;-53
2020/09/20 11:22:32;;;;;;;4.09;2.91;;;;;;;19.99;60.72;100287.58;;;;-53
2020/09/20 11:25:33;;;;;;;4.14;2.81;;;;;;;20.01;60.73;100285.71;;;;-53
2020/09/20 11:28:32;;;;;;;3.85;2.80;;;;;;;20.01;60.71;100284.57;;;;-53
2020/09/20 11:31:32;;;;;;;3.41;2.63;;;;;;;20.01;60.72;100285.45;;;;-53
2020/09/20 11:34:34;;;;;;;5.31;2.70;;;;;;;20.02;60.73;100284.80;;;;-53
2020/09/20 11:37:32;;;;;;;3.52;2.77;;;;;;;20.02;60.72;100281.21;;;;-53
2020/09/20 11:40:32;;;;;;;3.32;2.78;;;;;;;20.03;60.75;100276.11;;;;-53
2020/09/20 11:43:32;;;;;;;4.17;2.61;;;;;;;20.03;60.80;100274.97;;;;-53
2020/09/20 11:46:33;;;;;;;2.94;2.64;;;;;;;20.04;60.73;100267.63;;;;-53
2020/09/20 11:49:32;;;;;;;2.87;2.61;;;;;;;20.04;60.76;100260.72;;;;-53
2020/09/20 11:52:32;;;;;;;3.78;2.59;;;;;;;20.04;60.75;100260.72;;;;-58
2020/09/20 11:55:33;;;;;;;3.05;2.71;;;;;;;20.06;60.75;100254.63;;;;-58
2020/09/20 11:58:32;;;;;;;3.83;2.62;;;;;;;20.07;60.74;100253.50;;;;-58
2020/09/20 12:01:32;;;;;;;6.15;2.88;;;;;;;20.07;60.92;100251.23;;;;-53
2020/09/20 12:04:33;;;;;;;3.21;2.65;;;;;;;20.10;60.92;100253.81;;;;-52
2020/09/20 12:07:32;;;;;;;3.21;2.68;;;;;;;20.12;60.94;100250.07;;;;-53
2020/09/20 12:10:33;;;;;;;4.31;2.95;;;;;;;20.15;60.94;100249.03;;;;-58
2020/09/20 12:13:33;;;;;;;3.91;2.85;;;;;;;20.17;61.01;100244.36;;;;-53
2020/09/20 12:16:32;;;;;;;3.75;2.60;;;;;;;20.18;61.15;100239.98;;;;-53
2020/09/20 12:19:32;;;;;;;3.80;2.81;;;;;;;20.20;61.07;100235.51;;;;-51
2020/09/20 12:22:32;;;;;;;3.65;2.92;;;;;;;20.23;61.05;100237.86;;;;-58
2020/09/20 12:25:33;;;;;;;3.71;2.64;;;;;;;20.25;61.19;100234.94;;;;-59
2020/09/20 12:28:32;;;;;;;4.76;2.89;;;;;;;20.25;61.17;100234.69;;;;-61
2020/09/20 12:31:32;;;;;;;4.05;2.67;;;;;;;20.25;61.12;100232.25;;;;-62
2020/09/20 12:34:32;;;;;;;6.71;3.08;;;;;;;20.25;61.02;100226.47;;;;-60
2020/09/20 12:37:32;;;;;;;3.88;2.80;;;;;;;20.25;61.07;100225.16;;;;-60
2020/09/20 12:40:32;;;;;;;3.10;2.49;;;;;;;20.25;60.90;100215.97;;;;-60
2020/09/20 12:43:32;;;;;;;3.63;2.85;;;;;;;20.26;60.96;100215.09;;;;-60
2020/09/20 12:46:32;;;;;;;4.84;3.03;;;;;;;20.26;60.98;100208.25;;;;-60
2020/09/20 12:49:32;;;;;;;3.78;2.88;;;;;;;20.26;60.98;100212.89;;;;-60
2020/09/20 12:52:32;;;;;;;3.01;2.71;;;;;;;20.27;60.94;100213.55;;;;-62
2020/09/20 12:55:32;;;;;;;3.63;2.77;;;;;;;20.27;60.94;100210.78;;;;-61
2020/09/20 12:58:32;;;;;;;3.77;2.71;;;;;;;20.28;60.98;100206.22;;;;-61
2020/09/20 13:01:32;;;;;;;3.57;2.89;;;;;;;20.27;60.90;100202.86;;;;-50
2020/09/20 13:04:33;;;;;;;2.89;2.58;;;;;;;20.28;60.92;100201.58;;;;-51
2020/09/20 13:07:32;;;;;;;4.75;2.75;;;;;;;20.28;60.88;100201.17;;;;-51
2020/09/20 13:10:33;;;;;;;2.97;2.52;;;;;;;20.28;60.92;100197.83;;;;-51
2020/09/20 13:13:32;;;;;;;3.12;2.78;;;;;;;20.28;60.94;100196.28;;;;-51
2020/09/20 13:16:32;;;;;;;3.08;2.71;;;;;;;20.29;60.99;100191.16;;;;-51
2020/09/20 13:19:32;;;;;;;4.32;2.66;;;;;;;20.28;60.98;100192.21;;;;-51
2020/09/20 13:22:32;;;;;;;3.97;2.75;;;;;;;20.29;60.98;100188.22;;;;-51
2020/09/20 13:25:32;;;;;;;3.45;2.71;;;;;;;20.29;60.99;100187.48;;;;-51
2020/09/20 13:28:34;;;;;;;3.27;2.62;;;;;;;20.29;61.00;100183.42;;;;-51
2020/09/20 13:31:32;;;;;;;2.97;2.56;;;;;;;20.31;60.98;100183.50;;;;-49
2020/09/20 13:34:32;;;;;;;3.05;2.54;;;;;;;20.31;60.98;100177.72;;;;-49
2020/09/20 13:37:32;;;;;;;3.57;2.50;;;;;;;20.32;60.98;100174.97;;;;-49
2020/09/20 13:40:32;;;;;;;3.01;2.58;;;;;;;20.32;60.95;100179.20;;;;-49
2020/09/20 13:43:33;;;;;;;3.18;2.53;;;;;;;20.32;60.98;100177.09;;;;-49
2020/09/20 13:46:32;;;;;;;2.71;2.50;;;;;;;20.32;61.02;100176.03;;;;-50
2020/09/20 13:49:33;;;;;;;2.67;2.37;;;;;;;20.32;61.00;100170.08;;;;-50
2020/09/20 13:52:32;;;;;;;3.79;2.59;;;;;;;20.34;61.05;100167.32;;;;-47
2020/09/20 13:55:32;;;;;;;3.43;2.60;;;;;;;20.36;61.09;100167.13;;;;-47
2020/09/20 13:58:32;;;;;;;3.87;2.71;;;;;;;20.38;61.30;100158.34;;;;-51
2020/09/20 14:01:32;;;;;;;3.79;2.80;;;;;;;20.41;61.40;100162.24;;;;-53
2020/09/20 14:04:33;;;;;;;8.07;3.07;;;;;;;20.43;61.79;100160.77;;;;-50
2020/09/20 14:07:32;;;;;;;4.05;3.09;;;;;;;20.46;61.91;100159.86;;;;-48
2020/09/20 14:10:32;;;;;;;7.84;2.95;;;;;;;20.49;61.81;100156.13;;;;-51
2020/09/20 14:13:32;;;;;;;5.16;2.83;;;;;;;20.52;61.87;100150.16;;;;-52
2020/09/20 14:16:32;;;;;;;9.42;3.19;;;;;;;20.54;61.89;100148.77;;;;-51
2020/09/20 14:19:32;;;;;;;6.54;2.97;;;;;;;20.56;62.02;100142.83;;;;-52
2020/09/20 14:22:32;;;;;;;6.59;2.87;;;;;;;20.58;62.01;100146.19;;;;-60
2020/09/20 14:25:32;;;;;;;5.95;3.10;;;;;;;20.60;62.06;100146.50;;;;-57
2020/09/20 14:28:32;;;;;;;11.71;3.27;;;;;;;20.60;62.01;100141.38;;;;-53
2020/09/20 14:31:32;;;;;;;11.13;3.22;;;;;;;20.60;62.15;100137.14;;;;-56
2020/09/20 14:34:32;;;;;;;7.59;3.05;;;;;;;20.60;62.12;100131.92;;;;-56
2020/09/20 14:37:32;;;;;;;7.59;2.97;;;;;;;20.61;62.05;100135.20;;;;-55
2020/09/20 14:40:33;;;;;;;7.15;3.19;;;;;;;20.61;62.01;100133.62;;;;-56
2020/09/20 14:43:32;;;;;;;7.67;2.89;;;;;;;20.62;61.94;100135.27;;;;-56
2020/09/20 14:46:33;;;;;;;4.59;3.08;;;;;;;20.63;61.82;100135.91;;;;-47
2020/09/20 14:49:32;;;;;;;9.69;3.03;;;;;;;20.63;62.12;100134.45;;;;-56
2020/09/20 14:52:33;;;;;;;7.67;3.43;;;;;;;20.66;62.06;100137.52;;;;-58
2020/09/20 14:55:33;;;;;;;8.19;3.19;;;;;;;20.68;62.13;100139.16;;;;-50
2020/09/20 14:58:32;;;;;;;8.85;3.25;;;;;;;20.69;62.11;100137.29;;;;-50
2020/09/20 15:01:32;;;;;;;11.79;3.29;;;;;;;20.72;62.05;100134.17;;;;-50
2020/09/20 15:04:32;;;;;;;9.84;3.26;;;;;;;20.72;62.09;100133.36;;;;-51
2020/09/20 15:07:32;;;;;;;7.43;3.03;;;;;;;20.73;62.03;100126.44;;;;-49
2020/09/20 15:10:33;;;;;;;9.03;3.19;;;;;;;20.75;62.06;100126.33;;;;-48
2020/09/20 15:13:32;;;;;;;11.19;3.28;;;;;;;20.76;62.01;100128.86;;;;-51
2020/09/20 15:16:32;;;;;;;7.59;3.27;;;;;;;20.77;62.08;100131.13;;;;-51
2020/09/20 15:19:32;;;;;;;9.51;3.13;;;;;;;20.77;62.04;100124.95;;;;-48
2020/09/20 15:22:33;;;;;;;8.98;3.18;;;;;;;20.78;62.00;100129.01;;;;-50
2020/09/20 15:25:33;;;;;;;11.82;3.41;;;;;;;20.79;62.14;100130.88;;;;-54
2020/09/20 15:28:32;;;;;;;12.95;3.21;;;;;;;20.78;62.21;100134.14;;;;-59
2020/09/20 15:31:32;;;;;;;13.14;3.14;;;;;;;20.79;62.17;100141.61;;;;-55
2020/09/20 15:34:32;;;;;;;9.17;3.05;;;;;;;20.79;62.16;100138.94;;;;-58
2020/09/20 15:37:32;;;;;;;8.31;3.06;;;;;;;20.81;62.33;100145.03;;;;-54
2020/09/20 15:40:32;;;;;;;13.76;3.38;;;;;;;20.82;62.13;100150.17;;;;-52
2020/09/20 15:43:32;;;;;;;9.41;3.27;;;;;;;20.82;62.14;100142.28;;;;-50
2020/09/20 15:46:32;;;;;;;7.83;3.31;;;;;;;20.82;62.18;100145.28;;;;-45
2020/09/20 15:49:32;;;;;;;8.51;3.29;;;;;;;20.83;62.13;100145.11;;;;-49
2020/09/20 15:52:32;;;;;;;6.39;3.04;;;;;;;20.83;61.99;100144.37;;;;-47
2020/09/20 15:55:32;;;;;;;5.99;2.99;;;;;;;20.84;62.02;100140.80;;;;-49
2020/09/20 15:58:32;;;;;;;5.71;2.99;;;;;;;20.84;62.02;100136.40;;;;-50
2020/09/20 16:01:32;;;;;;;6.67;3.06;;;;;;;20.84;62.17;100136.23;;;;-54
2020/09/20 16:04:32;;;;;;;9.63;3.04;;;;;;;20.86;62.17;100139.49;;;;-50
2020/09/20 16:07:32;;;;;;;6.89;2.78;;;;;;;20.86;62.05;100140.88;;;;-51
2020/09/20 16:10:32;;;;;;;9.51;3.12;;;;;;;20.87;62.17;100138.74;;;;-48
2020/09/20 16:13:32;;;;;;;6.51;3.27;;;;;;;20.88;62.00;100138.98;;;;-48
2020/09/20 16:16:32;;;;;;;7.95;3.17;;;;;;;20.89;62.02;100139.88;;;;-49
2020/09/20 16:19:32;;;;;;;6.41;2.93;;;;;;;20.89;61.95;100140.75;;;;-57
2020/09/20 16:22:32;;;;;;;5.61;3.00;;;;;;;20.90;62.08;100146.23;;;;-51
2020/09/20 16:25:32;;;;;;;5.78;2.98;;;;;;;20.90;62.03;100147.05;;;;-49
2020/09/20 16:28:32;;;;;;;6.81;2.69;;;;;;;20.92;62.00;100152.64;;;;-61
2020/09/20 16:31:32;;;;;;;5.92;3.25;;;;;;;20.92;62.05;100159.25;;;;-62
2020/09/20 16:34:32;;;;;;;9.01;3.26;;;;;;;20.93;61.98;100159.08;;;;-63
2020/09/20 16:37:32;;;;;;;4.42;2.81;;;;;;;20.93;62.10;100158.19;;;;-52
2020/09/20 16:40:32;;;;;;;5.64;2.99;;;;;;;20.93;62.07;100152.08;;;;-51